Time;durP1;ratioP1;P1;durP2;ratioP2;P2;SDS_P1;SDS_P2;PMS_P1;PMS_P2;Temp;Humidity;BMP_temperature;BMP_pressure;BME280_temperature;BME280_humidity;BME280_pressure;Samples;Min_cycle;Max_cycle;Signal;HPM_P1;HPM_P2
2023/07/16 00:00:04;;;;;;;8.70;7.80;;;19.60;99.90;;;;;;5033548;28;20527;-77
2023/07/16 00:02:31;;;;;;;13.13;6.80;;;19.60;99.90;;;;;;5033181;28;20942;-77
2023/07/16 00:04:57;;;;;;;17.33;7.60;;;19.50;99.90;;;;;;5033478;28;20977;-78
2023/07/16 00:07:24;;;;;;;18.40;7.27;;;19.50;99.90;;;;;;5033419;28;20515;-77
2023/07/16 00:09:50;;;;;;;9.60;7.47;;;19.40;99.90;;;;;;5033413;28;20442;-78
2023/07/16 00:12:18;;;;;;;12.03;6.67;;;19.40;99.90;;;;;;5033454;28;20457;-77
2023/07/16 00:14:45;;;;;;;16.90;6.40;;;19.40;99.90;;;;;;5033253;28;20985;-77
2023/07/16 00:17:12;;;;;;;7.90;6.23;;;19.40;99.90;;;;;;5033498;28;20455;-77
2023/07/16 00:19:38;;;;;;;14.93;6.70;;;19.40;99.90;;;;;;5032721;28;21062;-77
2023/07/16 00:22:05;;;;;;;11.30;6.07;;;19.40;99.90;;;;;;5033479;28;20501;-78
2023/07/16 00:24:32;;;;;;;13.60;5.67;;;19.40;99.90;;;;;;5033213;28;20974;-78
2023/07/16 00:26:58;;;;;;;6.10;5.50;;;19.40;99.90;;;;;;5033155;28;20993;-78
2023/07/16 00:29:26;;;;;;;13.00;5.33;;;19.30;99.90;;;;;;5032779;28;20512;-78
2023/07/16 00:31:53;;;;;;;9.67;5.17;;;19.30;99.90;;;;;;5033243;28;20504;-78
2023/07/16 00:34:20;;;;;;;16.30;5.50;;;19.30;99.90;;;;;;5032952;28;20470;-78
2023/07/16 00:36:46;;;;;;;9.13;7.30;;;19.30;99.90;;;;;;5032463;28;20488;-78
2023/07/16 00:39:13;;;;;;;15.20;7.43;;;19.30;99.90;;;;;;5033082;28;20450;-78
2023/07/16 00:41:40;;;;;;;28.30;6.30;;;19.30;99.90;;;;;;5033126;28;20424;-78
2023/07/16 00:44:07;;;;;;;16.67;6.97;;;19.30;99.90;;;;;;5032817;28;20556;-78
2023/07/16 00:46:35;;;;;;;13.30;6.47;;;19.20;99.90;;;;;;5032614;28;20511;-78
2023/07/16 00:49:03;;;;;;;8.97;5.23;;;19.30;99.90;;;;;;5032610;28;20460;-78
2023/07/16 00:51:30;;;;;;;6.40;5.43;;;19.30;99.90;;;;;;5032661;28;20457;-78
2023/07/16 00:53:57;;;;;;;15.27;7.27;;;19.30;99.90;;;;;;5032845;28;20461;-78
2023/07/16 00:56:23;;;;;;;8.47;6.13;;;19.30;99.90;;;;;;5032346;28;20457;-78
2023/07/16 00:58:50;;;;;;;8.83;5.80;;;19.20;99.90;;;;;;5032646;28;20453;-78
2023/07/16 01:01:17;;;;;;;7.80;5.80;;;19.30;99.90;;;;;;5032210;28;20999;-78
2023/07/16 01:03:45;;;;;;;11.00;5.57;;;19.20;99.90;;;;;;5032187;28;20870;-78
2023/07/16 01:06:17;;;;;;;6.57;5.47;;;19.30;99.90;;;;;;5032237;28;20512;-78
2023/07/16 01:08:48;;;;;;;7.50;3.97;;;19.20;99.90;;;;;;5032485;28;20428;-78
2023/07/16 01:11:15;;;;;;;5.00;3.83;;;19.10;99.90;;;;;;5032248;28;20458;-78
2023/07/16 01:13:43;;;;;;;5.00;3.20;;;19.00;99.90;;;;;;5031655;28;20881;-77
2023/07/16 01:16:19;;;;;;;6.13;3.17;;;18.90;99.90;;;;;;5032061;28;20478;-78
2023/07/16 01:18:47;;;;;;;7.57;3.20;;;18.90;99.90;;;;;;5032079;28;20511;-77
2023/07/16 01:21:14;;;;;;;6.63;3.23;;;18.90;99.90;;;;;;5032284;28;20515;-77
2023/07/16 01:24:00;;;;;;;5.00;3.23;;;18.80;99.90;;;;;;5031897;28;20457;-78
2023/07/16 01:26:49;;;;;;;7.10;3.07;;;18.80;99.90;;;;;;5032242;28;20484;-77
2023/07/16 01:29:29;;;;;;;6.93;3.13;;;18.70;99.90;;;;;;5032023;28;20457;-76
2023/07/16 01:31:57;;;;;;;7.73;2.90;;;18.70;99.90;;;;;;5031956;28;20575;-78
2023/07/16 01:34:27;;;;;;;6.70;3.10;;;18.70;99.90;;;;;;5031608;28;20473;-78
2023/07/16 01:36:54;;;;;;;7.33;2.50;;;18.60;99.90;;;;;;5032218;28;20507;-77
2023/07/16 01:39:21;;;;;;;5.97;2.80;;;18.60;99.90;;;;;;5031950;28;20435;-78
2023/07/16 01:41:48;;;;;;;4.50;3.43;;;18.50;99.90;;;;;;5032104;28;20424;-77
2023/07/16 01:44:14;;;;;;;4.00;3.00;;;18.50;99.90;;;;;;5031996;28;20531;-78
2023/07/16 01:46:42;;;;;;;5.50;2.90;;;18.50;99.90;;;;;;5031783;28;20520;-77
2023/07/16 01:49:08;;;;;;;10.60;2.80;;;18.40;99.90;;;;;;5031311;28;20527;-78
2023/07/16 01:51:35;;;;;;;8.83;2.90;;;18.40;99.90;;;;;;5032185;28;20950;-78
2023/07/16 01:54:01;;;;;;;4.40;3.00;;;18.40;99.90;;;;;;5031983;28;20272;-78
2023/07/16 01:56:28;;;;;;;5.70;2.97;;;18.30;99.90;;;;;;5031287;28;20458;-78
2023/07/16 01:58:54;;;;;;;9.17;2.73;;;18.30;99.90;;;;;;5031646;28;20457;-78
2023/07/16 02:01:21;;;;;;;6.10;3.23;;;18.20;99.90;;;;;;5031684;28;20507;-78
2023/07/16 02:03:49;;;;;;;9.63;2.70;;;18.20;99.90;;;;;;5027274;28;20465;-78
2023/07/16 02:06:16;;;;;;;6.97;2.77;;;18.10;99.90;;;;;;5031590;28;21062;-78
2023/07/16 02:08:43;;;;;;;8.90;2.90;;;18.10;99.90;;;;;;5031756;28;20453;-78
2023/07/16 02:11:09;;;;;;;13.13;3.43;;;18.00;99.90;;;;;;5032168;28;20511;-78
2023/07/16 02:13:36;;;;;;;6.00;2.73;;;18.00;99.90;;;;;;5031511;28;20449;-78
2023/07/16 02:16:02;;;;;;;6.00;3.07;;;17.90;99.90;;;;;;5031184;28;20495;-78
2023/07/16 02:18:29;;;;;;;5.63;2.67;;;18.00;99.90;;;;;;5031268;28;20580;-78
2023/07/16 02:20:57;;;;;;;6.13;2.90;;;17.90;99.90;;;;;;5031716;28;20460;-79
2023/07/16 02:23:24;;;;;;;5.20;2.90;;;17.80;99.90;;;;;;5031478;28;20876;-78
2023/07/16 02:25:50;;;;;;;6.80;3.30;;;17.80;99.90;;;;;;5033948;28;20545;-78
2023/07/16 02:28:17;;;;;;;6.10;2.83;;;17.80;99.90;;;;;;5034777;28;20509;-78
2023/07/16 02:30:44;;;;;;;8.13;2.87;;;17.80;99.90;;;;;;5035294;28;20473;-78
2023/07/16 02:33:10;;;;;;;3.90;2.80;;;17.70;99.90;;;;;;5035188;28;20449;-78
2023/07/16 02:35:37;;;;;;;11.60;2.60;;;17.70;99.90;;;;;;5035354;28;20469;-78
2023/07/16 02:38:05;;;;;;;6.30;3.40;;;17.70;99.90;;;;;;5035159;28;20503;-78
2023/07/16 02:40:32;;;;;;;6.67;3.20;;;17.70;99.90;;;;;;5035416;28;20427;-78
2023/07/16 02:42:58;;;;;;;5.53;2.63;;;17.70;99.90;;;;;;5035128;28;20535;-78
2023/07/16 02:45:25;;;;;;;5.20;2.60;;;17.60;99.90;;;;;;5034966;28;21017;-78
2023/07/16 02:47:52;;;;;;;5.80;3.43;;;17.60;99.90;;;;;;5035259;28;20582;-78
2023/07/16 02:50:18;;;;;;;13.50;3.43;;;17.60;99.90;;;;;;5035119;28;20872;-78
2023/07/16 02:52:45;;;;;;;9.73;2.73;;;17.50;99.90;;;;;;5035264;28;20428;-78
2023/07/16 02:55:13;;;;;;;19.07;3.30;;;17.60;99.90;;;;;;5034275;28;20456;-78
2023/07/16 02:57:40;;;;;;;12.87;3.57;;;17.50;99.90;;;;;;5035134;28;20476;-78
2023/07/16 03:00:08;;;;;;;10.57;3.10;;;17.40;99.90;;;;;;5034446;28;20491;-78
2023/07/16 03:02:34;;;;;;;7.50;2.80;;;17.40;99.90;;;;;;5035108;28;20457;-78
2023/07/16 03:05:01;;;;;;;10.40;3.53;;;17.40;99.90;;;;;;5034845;28;20473;-78
2023/07/16 03:07:28;;;;;;;16.40;4.30;;;17.40;99.90;;;;;;5034491;28;20502;-78
2023/07/16 03:09:54;;;;;;;7.23;3.73;;;17.40;99.90;;;;;;5034552;28;20495;-78
2023/07/16 03:12:22;;;;;;;11.23;3.50;;;17.30;99.90;;;;;;5034535;28;20423;-78
2023/07/16 03:14:50;;;;;;;9.70;3.63;;;17.30;99.90;;;;;;5034111;28;20523;-78
2023/07/16 03:17:17;;;;;;;8.67;2.90;;;17.30;99.90;;;;;;5034637;28;20453;-78
2023/07/16 03:19:44;;;;;;;9.93;3.23;;;17.20;99.90;;;;;;5034422;28;20439;-78
2023/07/16 03:22:10;;;;;;;10.23;3.23;;;17.10;99.90;;;;;;5034533;28;20442;-78
2023/07/16 03:24:37;;;;;;;19.13;4.10;;;17.10;99.90;;;;;;5034507;28;20519;-77
2023/07/16 03:27:04;;;;;;;21.63;4.07;;;17.10;99.90;;;;;;5034763;28;20464;-78
2023/07/16 03:29:34;;;;;;;33.23;4.23;;;17.00;99.90;;;;;;5033873;28;20436;-79
2023/07/16 03:32:00;;;;;;;27.73;4.20;;;16.90;99.90;;;;;;5030293;28;20489;-78
2023/07/16 03:34:27;;;;;;;19.83;3.57;;;16.90;99.90;;;;;;5033723;28;20461;-78
2023/07/16 03:36:54;;;;;;;21.23;4.30;;;16.80;99.90;;;;;;5033748;28;20412;-77
2023/07/16 03:39:20;;;;;;;19.50;4.20;;;16.80;99.90;;;;;;5033917;28;20420;-77
2023/07/16 03:41:47;;;;;;;20.43;4.37;;;16.80;99.90;;;;;;5034076;28;20420;-77
2023/07/16 03:44:13;;;;;;;13.50;4.80;;;16.80;99.90;;;;;;5034135;28;20448;-77
2023/07/16 03:46:41;;;;;;;29.13;5.10;;;16.80;99.90;;;;;;5034241;28;20808;-78
2023/07/16 03:49:08;;;;;;;10.57;4.90;;;16.80;99.90;;;;;;5032632;28;20962;-77
2023/07/16 03:51:35;;;;;;;17.97;4.80;;;16.80;99.90;;;;;;5033834;28;20489;-77
2023/07/16 03:54:02;;;;;;;16.40;4.70;;;16.80;99.90;;;;;;5034098;28;20424;-78
2023/07/16 03:56:28;;;;;;;20.03;5.37;;;16.80;99.90;;;;;;5034884;28;20470;-78
2023/07/16 03:58:55;;;;;;;24.03;5.37;;;16.80;99.90;;;;;;5033881;28;20453;-78
2023/07/16 04:01:22;;;;;;;18.63;5.43;;;16.80;99.90;;;;;;5033366;28;20519;-78
2023/07/16 04:03:50;;;;;;;16.67;5.47;;;16.80;99.90;;;;;;5029459;28;20515;-78
2023/07/16 04:06:16;;;;;;;24.87;6.50;;;16.70;99.90;;;;;;5033887;28;20515;-78
2023/07/16 04:08:43;;;;;;;14.63;5.20;;;16.70;99.90;;;;;;5033314;28;20518;-78
2023/07/16 04:11:10;;;;;;;23.73;6.23;;;16.70;99.90;;;;;;5033689;28;20845;-78
2023/07/16 04:13:36;;;;;;;34.53;5.87;;;16.70;99.90;;;;;;5033714;28;20946;-78
2023/07/16 04:16:03;;;;;;;24.27;6.20;;;16.70;99.90;;;;;;5033175;28;20989;-78
2023/07/16 04:18:30;;;;;;;20.23;5.30;;;16.70;99.90;;;;;;5033120;28;20432;-78
2023/07/16 04:20:58;;;;;;;14.20;5.80;;;16.70;99.90;;;;;;5033690;28;20535;-78
2023/07/16 04:23:24;;;;;;;13.30;5.87;;;16.70;99.90;;;;;;5033347;28;20928;-79
2023/07/16 04:25:53;;;;;;;19.63;5.60;;;16.70;99.90;;;;;;5033265;28;20494;-78
2023/07/16 04:28:20;;;;;;;17.57;5.50;;;16.70;99.90;;;;;;5032919;28;20520;-78
2023/07/16 04:30:47;;;;;;;20.00;5.10;;;16.80;99.90;;;;;;5032823;28;20817;-78
2023/07/16 04:33:13;;;;;;;20.37;5.43;;;16.80;99.90;;;;;;5032866;28;20508;-78
2023/07/16 04:35:40;;;;;;;15.93;4.80;;;16.80;99.90;;;;;;5033262;28;20469;-78
2023/07/16 04:38:08;;;;;;;19.70;5.10;;;16.90;99.90;;;;;;5032713;28;20515;-78
2023/07/16 04:40:35;;;;;;;10.73;4.60;;;16.90;99.90;;;;;;5032890;28;20518;-78
2023/07/16 04:43:02;;;;;;;14.03;4.80;;;17.00;99.90;;;;;;5032609;28;20485;-78
2023/07/16 04:45:29;;;;;;;16.53;4.27;;;17.00;99.90;;;;;;5032970;28;20471;-78
2023/07/16 04:47:56;;;;;;;14.10;3.90;;;17.10;99.90;;;;;;5032120;28;20495;-78
2023/07/16 04:50:22;;;;;;;23.90;4.57;;;17.20;99.90;;;;;;5032704;28;20525;-78
2023/07/16 04:52:49;;;;;;;11.20;3.97;;;17.20;99.90;;;;;;5032487;28;20428;-77
2023/07/16 04:55:17;;;;;;;11.83;3.70;;;17.30;99.90;;;;;;5032764;28;20551;-77
2023/07/16 04:57:43;;;;;;;11.07;4.00;;;17.40;99.90;;;;;;5032495;28;20428;-77
2023/07/16 05:00:11;;;;;;;15.50;4.27;;;17.50;99.90;;;;;;5032394;28;20829;-77
2023/07/16 05:02:38;;;;;;;9.63;3.83;;;17.50;99.90;;;;;;5032826;28;20428;-72
2023/07/16 05:05:05;;;;;;;12.43;3.73;;;17.60;99.90;;;;;;5031990;28;20987;-72
2023/07/16 05:07:32;;;;;;;7.60;3.77;;;17.70;99.90;;;;;;5032393;28;20485;-71
2023/07/16 05:09:58;;;;;;;8.77;3.30;;;17.80;99.90;;;;;;5032003;28;20457;-72
2023/07/16 05:12:26;;;;;;;8.77;3.30;;;18.00;99.90;;;;;;5033042;28;20449;-71
2023/07/16 05:14:53;;;;;;;12.47;3.30;;;18.10;99.90;;;;;;5032369;28;20953;-72
2023/07/16 05:17:20;;;;;;;12.17;3.67;;;18.20;99.90;;;;;;5032437;28;20870;-72
2023/07/16 05:19:46;;;;;;;8.43;3.07;;;18.30;99.90;;;;;;5032215;28;20511;-72
2023/07/16 05:22:13;;;;;;;9.90;3.43;;;18.40;99.90;;;;;;5032082;28;20499;-72
2023/07/16 05:24:40;;;;;;;10.77;3.10;;;18.50;99.90;;;;;;5031783;28;20486;-69
2023/07/16 05:27:06;;;;;;;9.70;2.87;;;18.60;99.90;;;;;;5031835;28;20428;-69
2023/07/16 05:29:34;;;;;;;9.47;3.33;;;18.70;99.90;;;;;;5031479;28;20469;-70
2023/07/16 05:32:02;;;;;;;11.13;2.80;;;18.80;99.90;;;;;;5031886;28;20515;-70
2023/07/16 05:34:29;;;;;;;6.77;3.13;;;18.90;99.90;;;;;;5031371;28;20480;-70
2023/07/16 05:36:56;;;;;;;6.50;2.90;;;19.00;99.90;;;;;;5031882;28;20953;-70
2023/07/16 05:39:23;;;;;;;8.10;2.83;;;19.00;99.90;;;;;;5031543;28;20999;-69
2023/07/16 05:41:50;;;;;;;4.77;2.47;;;19.10;99.90;;;;;;5031642;28;20511;-70
2023/07/16 05:44:16;;;;;;;12.03;3.40;;;19.10;99.90;;;;;;5031179;28;20538;-69
2023/07/16 05:46:44;;;;;;;8.20;3.07;;;19.20;99.90;;;;;;5031576;28;20509;-70
2023/07/16 05:49:11;;;;;;;13.33;3.07;;;19.20;99.90;;;;;;5031275;28;20481;-70
2023/07/16 05:51:38;;;;;;;6.23;2.40;;;19.30;99.90;;;;;;5031722;28;20507;-70
2023/07/16 05:54:04;;;;;;;5.47;2.70;;;19.30;99.90;;;;;;5031531;28;20504;-70
2023/07/16 05:56:31;;;;;;;5.37;2.77;;;19.40;99.90;;;;;;5031459;28;21012;-70
2023/07/16 05:58:58;;;;;;;4.97;2.73;;;19.40;99.90;;;;;;5031134;28;20863;-70
2023/07/16 06:01:24;;;;;;;6.93;3.17;;;19.50;99.90;;;;;;5031554;28;20873;-70
2023/07/16 06:03:53;;;;;;;6.37;2.40;;;19.50;99.90;;;;;;5031215;28;20511;-70
2023/07/16 06:06:20;;;;;;;6.83;2.90;;;19.50;99.90;;;;;;5030793;28;20461;-70
2023/07/16 06:08:48;;;;;;;5.80;2.80;;;19.50;99.90;;;;;;5031452;28;20493;-70
2023/07/16 06:11:15;;;;;;;10.77;2.90;;;19.50;99.90;;;;;;5031422;28;20515;-71
2023/07/16 06:13:41;;;;;;;8.27;3.13;;;19.50;99.90;;;;;;5030231;28;20496;-70
2023/07/16 06:16:08;;;;;;;4.73;2.70;;;19.50;99.90;;;;;;5029143;28;20444;-69
2023/07/16 06:18:35;;;;;;;5.00;2.80;;;19.40;99.90;;;;;;5030365;28;20535;-69
2023/07/16 06:21:03;;;;;;;6.47;2.47;;;19.50;99.90;;;;;;5029201;28;20465;-70
2023/07/16 06:23:29;;;;;;;10.23;3.90;;;19.40;99.90;;;;;;5029514;28;20466;-70
2023/07/16 06:25:56;;;;;;;6.93;3.10;;;19.40;99.90;;;;;;5029385;28;20480;-69
2023/07/16 06:28:23;;;;;;;5.40;3.00;;;19.50;99.90;;;;;;5028989;28;20862;-70
2023/07/16 06:30:52;;;;;;;6.67;2.87;;;19.80;99.90;;;;;;5029131;28;20505;-70
2023/07/16 06:33:19;;;;;;;13.87;3.90;;;19.90;99.90;;;;;;5029483;28;20540;-70
2023/07/16 06:35:46;;;;;;;7.87;3.37;;;20.00;99.90;;;;;;5030512;28;20500;-69
2023/07/16 06:38:15;;;;;;;7.77;3.27;;;20.10;99.90;;;;;;5030992;28;20537;-69
2023/07/16 06:40:47;;;;;;;6.77;3.60;;;20.10;99.90;;;;;;5031086;28;20457;-69
2023/07/16 06:43:13;;;;;;;5.57;3.17;;;20.30;99.90;;;;;;5031230;28;20540;-69
2023/07/16 06:45:40;;;;;;;4.93;3.17;;;20.20;99.90;;;;;;5029810;28;20874;-69
2023/07/16 06:48:07;;;;;;;7.90;3.77;;;20.40;99.90;;;;;;5030988;28;20493;-69
2023/07/16 06:50:33;;;;;;;6.80;3.57;;;20.50;99.90;;;;;;5031126;28;20457;-69
2023/07/16 06:53:00;;;;;;;8.07;3.37;;;20.50;99.90;;;;;;5031072;28;20462;-70
2023/07/16 06:55:28;;;;;;;5.33;3.17;;;20.40;99.90;;;;;;5030801;28;20542;-69
2023/07/16 06:57:54;;;;;;;7.10;3.43;;;20.40;99.90;;;;;;5030994;28;20454;-69
2023/07/16 07:00:21;;;;;;;7.40;2.90;;;20.50;99.90;;;;;;5030482;28;20457;-69
2023/07/16 07:02:48;;;;;;;5.90;3.30;;;20.60;99.90;;;;;;5031160;28;20457;-69
2023/07/16 07:05:14;;;;;;;10.30;4.10;;;20.80;99.90;;;;;;5030955;28;20473;-70
2023/07/16 07:07:42;;;;;;;10.00;3.67;;;20.90;99.90;;;;;;5030806;28;20457;-69
2023/07/16 07:10:09;;;;;;;9.40;3.70;;;20.90;99.90;;;;;;5030389;28;20458;-69
2023/07/16 07:12:37;;;;;;;12.13;3.83;;;20.70;99.90;;;;;;5033948;28;20457;-69
2023/07/16 07:15:05;;;;;;;11.17;4.47;;;20.80;99.90;;;;;;5034583;28;20473;-69
2023/07/16 07:17:32;;;;;;;8.70;3.70;;;20.90;99.90;;;;;;5034106;28;20461;-69
2023/07/16 07:19:59;;;;;;;7.80;2.90;;;21.00;99.90;;;;;;5033733;28;20457;-69
2023/07/16 07:22:25;;;;;;;7.70;3.20;;;21.30;99.90;;;;;;5036591;28;20933;-70
2023/07/16 07:24:52;;;;;;;7.57;4.30;;;21.50;99.90;;;;;;5034104;28;20523;-69
2023/07/16 07:27:19;;;;;;;11.43;3.83;;;21.60;99.90;;;;;;5034288;28;20927;-69
2023/07/16 07:29:51;;;;;;;8.10;4.00;;;21.70;99.90;;;;;;5032884;28;20543;-69
2023/07/16 07:32:18;;;;;;;11.43;3.63;;;21.40;99.90;;;;;;5033101;28;20457;-69
2023/07/16 07:34:45;;;;;;;14.13;3.70;;;21.50;99.90;;;;;;5033283;28;20481;-69
2023/07/16 07:37:11;;;;;;;10.03;3.80;;;21.60;99.90;;;;;;5032981;28;20531;-71
2023/07/16 07:39:38;;;;;;;12.43;4.00;;;21.50;99.90;;;;;;5033148;28;20454;-70
2023/07/16 07:42:06;;;;;;;6.77;3.67;;;21.60;99.90;;;;;;5033754;28;20461;-69
2023/07/16 07:44:33;;;;;;;11.17;3.70;;;21.40;99.90;;;;;;5034517;28;20469;-70
2023/07/16 07:47:01;;;;;;;8.23;3.40;;;21.30;99.90;;;;;;5043476;28;20505;-69
2023/07/16 07:49:27;;;;;;;9.57;3.67;;;21.10;99.90;;;;;;5033735;28;20485;-69
2023/07/16 07:51:55;;;;;;;6.80;4.23;;;21.10;99.90;;;;;;5040076;28;20520;-69
2023/07/16 07:54:21;;;;;;;8.00;3.67;;;21.00;99.90;;;;;;5044404;28;21028;-69
2023/07/16 07:56:48;;;;;;;9.60;4.60;;;21.10;99.90;;;;;;5044152;28;20515;-69
2023/07/16 07:59:15;;;;;;;6.47;3.53;;;21.30;99.90;;;;;;5040017;28;20483;-69
2023/07/16 08:01:41;;;;;;;8.60;3.77;;;21.60;99.90;;;;;;5035776;28;20480;-68
2023/07/16 08:04:09;;;;;;;11.23;3.93;;;21.90;99.90;;;;;;5038414;28;20839;-68
2023/07/16 08:06:36;;;;;;;12.10;3.80;;;22.10;99.90;;;;;;5033511;28;20458;-69
2023/07/16 08:09:02;;;;;;;8.83;3.93;;;22.10;99.90;;;;;;5032642;28;20534;-72
2023/07/16 08:11:29;;;;;;;3.90;3.40;;;21.90;99.90;;;;;;5033284;28;20480;-72
2023/07/16 08:13:56;;;;;;;8.17;3.70;;;21.90;99.90;;;;;;5045292;28;20453;-72
2023/07/16 08:16:22;;;;;;;11.80;3.90;;;22.00;99.90;;;;;;5044156;28;20457;-71
2023/07/16 08:18:49;;;;;;;7.20;3.23;;;21.80;99.90;;;;;;5039369;28;20491;-73
2023/07/16 08:21:19;;;;;;;14.27;3.97;;;21.90;99.90;;;;;;5040874;28;20457;-71
2023/07/16 08:23:47;;;;;;;7.10;3.28;;;21.90;99.90;;;;;;5031086;28;20449;-71
2023/07/16 08:26:13;;;;;;;10.80;4.20;;;22.00;99.90;;;;;;5044608;28;20245;-73
2023/07/16 08:28:40;;;;;;;7.33;3.50;;;22.10;99.90;;;;;;5042802;28;20485;-71
2023/07/16 08:31:07;;;;;;;6.93;3.77;;;22.10;99.90;;;;;;5041401;28;20519;-71
2023/07/16 08:33:33;;;;;;;7.80;4.00;;;22.00;99.90;;;;;;5033480;28;20515;-67
2023/07/16 08:36:00;;;;;;;8.70;4.37;;;21.90;99.90;;;;;;5044284;28;20480;-67
2023/07/16 08:38:28;;;;;;;4.97;3.33;;;22.00;99.90;;;;;;5044322;28;21000;-67
2023/07/16 08:40:54;;;;;;;7.47;3.13;;;22.10;99.90;;;;;;5031688;28;20496;-70
2023/07/16 08:43:22;;;;;;;8.93;3.90;;;22.10;99.90;;;;;;5032221;28;20499;-70
2023/07/16 08:45:50;;;;;;;12.40;3.50;;;22.20;99.90;;;;;;5041025;28;20476;-69
2023/07/16 08:48:18;;;;;;;10.83;4.23;;;22.30;99.90;;;;;;5032277;28;20516;-69
2023/07/16 08:50:47;;;;;;;6.10;3.23;;;22.50;99.90;;;;;;5042334;28;20871;-69
2023/07/16 08:53:16;;;;;;;4.70;2.90;;;22.80;99.90;;;;;;5052496;28;20448;-69
2023/07/16 08:55:45;;;;;;;8.55;3.25;;;22.80;99.90;;;;;;5051090;28;20506;-69
2023/07/16 08:58:14;;;;;;;5.43;3.20;;;22.60;99.90;;;;;;5052174;28;20678;-72
2023/07/16 09:00:42;;;;;;;5.87;3.80;;;22.60;99.90;;;;;;5044464;28;20485;-69
2023/07/16 09:03:09;;;;;;;8.77;3.97;;;22.40;99.90;;;;;;5044703;28;20515;-71
2023/07/16 09:05:36;;;;;;;8.25;3.00;;;22.50;99.90;;;;;;5039916;28;20492;-70
2023/07/16 09:08:03;;;;;;;9.63;3.47;;;22.90;99.90;;;;;;5032251;28;20209;-70
2023/07/16 09:10:30;;;;;;;6.60;3.20;;;22.90;99.90;;;;;;5031854;28;20449;-70
2023/07/16 09:12:59;;;;;;;12.40;3.93;;;23.00;99.90;;;;;;5031903;28;20846;-71
2023/07/16 09:15:28;;;;;;;9.30;4.10;;;23.30;99.90;;;;;;5039560;28;20491;-71
2023/07/16 09:17:55;;;;;;;5.20;3.00;;;23.60;99.90;;;;;;5038380;28;20518;-71
2023/07/16 09:20:23;;;;;;;5.13;3.63;;;23.60;99.90;;;;;;5034856;28;20195;-70
2023/07/16 09:22:50;;;;;;;8.87;3.57;;;23.40;99.90;;;;;;5040681;28;20561;-71
2023/07/16 09:25:17;;;;;;;10.33;3.63;;;23.50;99.90;;;;;;5044349;28;20546;-70
2023/07/16 09:27:44;;;;;;;12.10;3.97;;;23.60;99.90;;;;;;5047095;28;20460;-71
2023/07/16 09:30:17;;;;;;;5.03;3.63;;;23.60;99.90;;;;;;5043346;28;20534;-71
2023/07/16 09:32:45;;;;;;;8.33;4.00;;;23.70;99.90;;;;;;5042918;28;20949;-70
2023/07/16 09:35:12;;;;;;;6.90;3.20;;;23.70;99.90;;;;;;5031147;28;20508;-70
2023/07/16 09:37:39;;;;;;;8.80;4.00;;;23.40;99.90;;;;;;5041212;28;20449;-70
2023/07/16 09:40:09;;;;;;;11.77;3.70;;;23.20;99.90;;;;;;5050926;28;20937;-71
2023/07/16 09:42:38;;;;;;;7.20;3.30;;;22.80;99.90;;;;;;5043614;28;20511;-71
2023/07/16 09:45:08;;;;;;;6.13;3.80;;;22.90;99.90;;;;;;5041468;28;20980;-72
2023/07/16 09:47:36;;;;;;;7.80;3.50;;;23.10;99.90;;;;;;5044573;28;20539;-70
2023/07/16 09:50:04;;;;;;;7.07;3.23;;;23.60;99.90;;;;;;5031334;28;20547;-71
2023/07/16 09:52:32;;;;;;;9.20;3.37;;;23.90;99.90;;;;;;5044848;28;20491;-72
2023/07/16 09:55:00;;;;;;;5.27;3.57;;;24.30;99.90;;;;;;5038995;28;20469;-72
2023/07/16 09:57:29;;;;;;;8.97;4.00;;;24.40;99.90;;;;;;5038349;28;20457;-72
2023/07/16 09:59:59;;;;;;;4.30;3.40;;;24.20;99.90;;;;;;5034048;28;20508;-72
2023/07/16 10:02:26;;;;;;;5.63;3.37;;;24.20;99.90;;;;;;5036387;28;20519;-72
2023/07/16 10:04:57;;;;;;;7.40;4.20;;;24.50;99.90;;;;;;5041074;28;20530;-71
2023/07/16 10:07:26;;;;;;;8.53;3.50;;;24.60;99.90;;;;;;5042109;28;21060;-70
2023/07/16 10:09:55;;;;;;;7.30;3.40;;;24.70;99.90;;;;;;5042111;28;20492;-72
2023/07/16 10:12:24;;;;;;;7.20;3.40;;;25.00;99.90;;;;;;5044537;28;20511;-72
2023/07/16 10:14:52;;;;;;;12.53;4.13;;;24.80;99.90;;;;;;5039180;28;20531;-71
2023/07/16 10:17:20;;;;;;;8.27;3.77;;;24.50;99.90;;;;;;5030437;28;20453;-71
2023/07/16 10:19:51;;;;;;;5.90;3.20;;;24.50;99.90;;;;;;5030182;28;20445;-71
2023/07/16 10:22:20;;;;;;;4.53;3.57;;;24.90;99.90;;;;;;5044057;28;20453;-70
2023/07/16 10:24:53;;;;;;;12.97;3.90;;;25.10;99.90;;;;;;5040895;28;20512;-70
2023/07/16 10:27:28;;;;;;;6.40;3.93;;;25.00;99.90;;;;;;5044641;28;20998;-69
2023/07/16 10:29:55;;;;;;;9.07;3.77;;;24.80;99.90;;;;;;5038513;28;20493;-70
2023/07/16 10:32:22;;;;;;;8.93;4.73;;;24.50;99.90;;;;;;5036473;28;20541;-69
2023/07/16 10:34:48;;;;;;;6.93;4.40;;;24.50;99.90;;;;;;5024835;28;20485;-70
2023/07/16 10:37:15;;;;;;;8.47;4.57;;;24.50;99.90;;;;;;5027997;28;20449;-70
2023/07/16 10:39:48;;;;;;;7.20;3.77;;;24.50;99.90;;;;;;5025906;28;20892;-71
2023/07/16 10:42:17;;;;;;;7.40;3.60;;;24.70;99.90;;;;;;5027282;28;20868;-71
2023/07/16 10:44:43;;;;;;;7.23;3.73;;;24.90;99.90;;;;;;5027192;28;20480;-71
2023/07/16 10:47:11;;;;;;;10.47;4.80;;;25.10;99.90;;;;;;5029458;28;20449;-70
2023/07/16 10:49:37;;;;;;;4.83;3.17;;;25.40;99.90;;;;;;5030922;28;20908;-73
2023/07/16 10:52:05;;;;;;;9.67;3.90;;;25.80;99.90;;;;;;5030878;28;20883;-73
2023/07/16 10:54:31;;;;;;;7.30;3.80;;;25.90;99.90;;;;;;5031098;28;20469;-70
2023/07/16 10:56:59;;;;;;;6.60;5.00;;;25.90;99.90;;;;;;5031052;28;20855;-71
2023/07/16 10:59:26;;;;;;;9.90;3.60;;;25.60;99.90;;;;;;5033406;28;20476;-70
2023/07/16 11:01:53;;;;;;;11.07;3.97;;;24.90;99.90;;;;;;5030243;28;20484;-71
2023/07/16 11:04:19;;;;;;;5.27;3.50;;;24.60;99.90;;;;;;5030136;28;21043;-70
2023/07/16 11:06:46;;;;;;;11.33;3.80;;;24.70;99.90;;;;;;5030899;28;20445;-71
2023/07/16 11:09:14;;;;;;;7.53;3.20;;;24.80;99.90;;;;;;5030749;28;20846;-70
2023/07/16 11:11:41;;;;;;;6.30;3.47;;;25.10;99.90;;;;;;5030885;28;20457;-70
2023/07/16 11:14:09;;;;;;;7.30;3.97;;;25.20;99.90;;;;;;5030810;28;20567;-70
2023/07/16 11:16:36;;;;;;;7.67;3.53;;;25.40;99.90;;;;;;5030246;28;20589;-70
2023/07/16 11:19:05;;;;;;;11.30;3.60;;;25.70;99.90;;;;;;5030235;28;20543;-70
2023/07/16 11:21:31;;;;;;;4.30;3.67;;;25.90;99.90;;;;;;5029809;28;20511;-70
2023/07/16 11:24:09;;;;;;;5.20;3.40;;;26.10;99.90;;;;;;5030020;28;20461;-69
2023/07/16 11:26:36;;;;;;;6.10;3.70;;;25.70;99.90;;;;;;5030030;28;20457;-69
2023/07/16 11:29:12;;;;;;;7.57;3.23;;;25.50;99.90;;;;;;5029926;28;20544;-69
2023/07/16 11:31:41;;;;;;;3.50;3.10;;;25.70;99.90;;;;;;5029858;28;20956;-70
2023/07/16 11:34:08;;;;;;;8.87;3.90;;;25.90;99.90;;;;;;5028858;28;21423;-70
2023/07/16 11:36:35;;;;;;;7.60;3.73;;;25.70;99.90;;;;;;5030044;28;20506;-69
2023/07/16 11:39:03;;;;;;;4.80;3.30;;;25.80;99.90;;;;;;5030099;28;20961;-69
2023/07/16 11:41:30;;;;;;;7.90;3.80;;;25.80;99.90;;;;;;5030376;28;20536;-69
2023/07/16 11:44:01;;;;;;;8.40;5.63;;;25.50;99.90;;;;;;5029703;28;20457;-70
2023/07/16 11:46:33;;;;;;;35.10;17.70;;;25.60;99.90;;;;;;5029797;28;20449;-70
2023/07/16 11:49:01;;;;;;;97.00;56.43;;;26.00;99.90;;;;;;5029454;28;20453;-71
2023/07/16 11:51:28;;;;;;;64.10;48.27;;;26.30;99.90;;;;;;5029767;28;20454;-70
2023/07/16 11:53:57;;;;;;;53.70;46.33;;;26.60;99.90;;;;;;5030086;28;21134;-69
2023/07/16 11:56:24;;;;;;;327.67;212.73;;;26.00;99.90;;;;;;5029254;28;20567;-70
2023/07/16 11:58:51;;;;;;;26.63;14.77;;;25.90;99.90;;;;;;5029751;28;20445;-69
2023/07/16 12:01:17;;;;;;;7.50;4.03;;;25.50;99.90;;;;;;5029144;28;20855;-69
2023/07/16 12:03:44;;;;;;;6.03;4.00;;;25.50;99.90;;;;;;5027062;28;20453;-69
2023/07/16 12:06:12;;;;;;;32.57;16.40;;;25.50;99.90;;;;;;5022344;28;20885;-69
2023/07/16 12:08:39;;;;;;;42.13;20.63;;;25.60;99.90;;;;;;5028709;28;20946;-69
2023/07/16 12:11:05;;;;;;;9.07;4.13;;;25.70;99.90;;;;;;5029238;28;20493;-70
2023/07/16 12:13:32;;;;;;;8.43;3.80;;;25.70;99.90;;;;;;5029220;28;20520;-69
2023/07/16 12:15:59;;;;;;;11.50;4.03;;;25.70;99.90;;;;;;5028946;28;20921;-68
2023/07/16 12:18:26;;;;;;;40.87;20.83;;;26.00;99.90;;;;;;5029002;28;20507;-68
2023/07/16 12:20:53;;;;;;;469.73;336.93;;;26.10;99.90;;;;;;5028529;28;20540;-68
2023/07/16 12:23:21;;;;;;;147.50;87.73;;;25.80;99.90;;;;;;5028680;28;20455;-71
2023/07/16 12:25:49;;;;;;;9.50;6.40;;;26.10;99.90;;;;;;5027725;28;20449;-71
2023/07/16 12:28:15;;;;;;;27.08;18.77;;;26.50;99.90;;;;;;5027678;28;20933;-69
2023/07/16 12:30:42;;;;;;;8.40;5.10;;;26.60;99.90;;;;;;5027195;28;20222;-70
2023/07/16 12:33:09;;;;;;;11.10;6.90;;;26.60;99.90;;;;;;5028609;28;20453;-70
2023/07/16 12:35:35;;;;;;;12.17;8.80;;;26.40;99.90;;;;;;5028805;28;20539;-69
2023/07/16 12:38:02;;;;;;;5.67;3.80;;;26.40;99.90;;;;;;5028293;28;20477;-70
2023/07/16 12:40:31;;;;;;;15.63;4.70;;;26.00;99.90;;;;;;5027642;28;20457;-70
2023/07/16 12:42:58;;;;;;;7.20;4.20;;;26.00;99.90;;;;;;5027879;28;20992;-69